createdAt,value
2022-12-17T00:01:37.805Z,-1.20
2022-12-17T00:04:23.281Z,-1.20
2022-12-17T00:07:13.177Z,-1.20
2022-12-17T00:10:00.941Z,-1.20
2022-12-17T00:12:49.583Z,-1.30
2022-12-17T00:15:35.518Z,-1.30
2022-12-17T00:18:21.993Z,-1.30
2022-12-17T00:21:12.079Z,-1.30
2022-12-17T00:23:59.106Z,-1.30
2022-12-17T00:26:44.893Z,-1.30
2022-12-17T00:29:30.652Z,-1.20
2022-12-17T00:32:16.678Z,-1.30
2022-12-17T00:35:04.590Z,-1.20
2022-12-17T00:37:59.012Z,-1.30
2022-12-17T00:40:45.921Z,-1.30
2022-12-17T00:43:32.116Z,-1.30
2022-12-17T00:46:18.643Z,-1.30
2022-12-17T00:49:04.463Z,-1.30
2022-12-17T00:51:49.767Z,-1.30
2022-12-17T00:54:35.252Z,-1.30
2022-12-17T00:57:22.082Z,-1.30
2022-12-17T01:00:07.597Z,-1.40
2022-12-17T01:02:53.540Z,-1.40
2022-12-17T01:05:39.386Z,-1.40
2022-12-17T01:08:27.701Z,-1.40
2022-12-17T01:11:18.070Z,-1.40
2022-12-17T01:14:05.301Z,-1.40
2022-12-17T01:16:56.239Z,-1.40
2022-12-17T01:19:42.064Z,-1.40
2022-12-17T01:22:27.490Z,-1.40
2022-12-17T01:25:12.925Z,-1.40
2022-12-17T01:27:58.426Z,-1.40
2022-12-17T01:30:47.245Z,-1.40
2022-12-17T01:33:31.864Z,-1.40
2022-12-17T01:36:17.873Z,-1.40
2022-12-17T01:39:03.903Z,-1.40
2022-12-17T01:41:58.146Z,-1.40
2022-12-17T01:45:25.367Z,-1.40
2022-12-17T01:48:17.889Z,-1.30
2022-12-17T01:51:08.033Z,-1.30
2022-12-17T01:54:07.533Z,-1.40
2022-12-17T01:56:55.450Z,-1.40
2022-12-17T01:59:48.263Z,-1.40
2022-12-17T02:02:34.067Z,-1.40
2022-12-17T02:05:21.757Z,-1.40
2022-12-17T02:08:21.113Z,-1.40
2022-12-17T02:11:14.921Z,-1.40
2022-12-17T02:14:07.073Z,-1.40
2022-12-17T02:16:56.935Z,-1.40
2022-12-17T02:19:54.721Z,-1.40
2022-12-17T02:22:49.035Z,-1.40
2022-12-17T02:25:41.913Z,-1.50
2022-12-17T02:28:29.027Z,-1.40
2022-12-17T02:31:16.895Z,-1.40
2022-12-17T02:34:04.398Z,-1.40
2022-12-17T02:36:53.755Z,-1.50
2022-12-17T02:39:40.175Z,-1.50
2022-12-17T02:42:38.231Z,-1.50
2022-12-17T02:45:27.139Z,-1.50
2022-12-17T02:48:15.830Z,-1.50
2022-12-17T02:51:02.175Z,-1.50
2022-12-17T02:53:47.876Z,-1.50
2022-12-17T02:56:33.614Z,-1.50
2022-12-17T02:59:19.212Z,-1.60
2022-12-17T03:02:06.865Z,-1.60
2022-12-17T03:04:52.515Z,-1.60
2022-12-17T03:07:38.195Z,-1.50
2022-12-17T03:10:24.836Z,-1.50
2022-12-17T03:13:10.569Z,-1.50
2022-12-17T03:15:56.180Z,-1.60
2022-12-17T03:18:43.175Z,-1.50
2022-12-17T03:21:28.573Z,-1.60
2022-12-17T03:24:13.951Z,-1.60
2022-12-17T03:26:59.302Z,-1.60
2022-12-17T03:29:44.604Z,-1.60
2022-12-17T03:32:30.011Z,-1.60
2022-12-17T03:35:17.016Z,-1.60
2022-12-17T03:38:02.487Z,-1.60
2022-12-17T03:40:48.285Z,-1.60
2022-12-17T03:43:33.997Z,-1.70
2022-12-17T03:46:19.705Z,-1.70
2022-12-17T03:49:05.333Z,-1.70
2022-12-17T03:51:52.422Z,-1.70
2022-12-17T03:54:37.898Z,-1.70
2022-12-17T03:57:22.508Z,-1.70
2022-12-17T04:00:07.839Z,-1.70
2022-12-17T04:03:02.321Z,-1.70
2022-12-17T04:05:51.224Z,-1.70
2022-12-17T04:08:38.058Z,-1.80
2022-12-17T04:11:24.194Z,-1.80
2022-12-17T04:14:09.935Z,-1.80
2022-12-17T04:16:55.969Z,-1.80
2022-12-17T04:19:41.440Z,-1.80
2022-12-17T04:22:26.887Z,-1.80
2022-12-17T04:25:14.056Z,-1.90
2022-12-17T04:27:59.438Z,-1.90
2022-12-17T04:30:56.386Z,-1.90
2022-12-17T04:33:42.119Z,-1.90
2022-12-17T04:36:27.901Z,-1.90
2022-12-17T04:39:13.410Z,-1.90
2022-12-17T04:42:00.171Z,-1.80
2022-12-17T04:44:46.142Z,-1.80
2022-12-17T04:47:31.692Z,-1.90
2022-12-17T04:50:17.612Z,-1.90
2022-12-17T04:53:03.265Z,-1.90
2022-12-17T04:55:51.467Z,-1.90
2022-12-17T04:58:38.585Z,-1.90
2022-12-17T05:01:24.192Z,-1.90
2022-12-17T05:04:12.324Z,-1.90
2022-12-17T05:06:57.751Z,-1.90
2022-12-17T05:09:43.350Z,-1.90
2022-12-17T05:12:30.180Z,-1.90
2022-12-17T05:15:19.629Z,-2.00
2022-12-17T05:18:05.223Z,-2.00
2022-12-17T05:20:52.875Z,-2.00
2022-12-17T05:23:38.318Z,-2.00
2022-12-17T05:26:26.217Z,-2.00
2022-12-17T05:29:15.820Z,-2.00
2022-12-17T05:32:03.204Z,-2.00
2022-12-17T05:34:48.844Z,-1.90
2022-12-17T05:37:34.268Z,-2.00
2022-12-17T05:40:19.758Z,-2.00
2022-12-17T05:43:13.779Z,-2.00
2022-12-17T05:46:11.186Z,-2.00
2022-12-17T05:48:58.201Z,-2.00
2022-12-17T05:51:43.927Z,-2.00
2022-12-17T05:54:29.542Z,-2.10
2022-12-17T05:57:15.054Z,-2.10
2022-12-17T06:00:00.865Z,-2.10
2022-12-17T06:02:46.692Z,-2.10
2022-12-17T06:05:36.257Z,-2.10
2022-12-17T06:08:37.519Z,-2.10
2022-12-17T06:11:22.843Z,-2.10
2022-12-17T06:14:08.539Z,-2.00
2022-12-17T06:16:54.184Z,-2.00
2022-12-17T06:19:40.875Z,-2.10
2022-12-17T06:22:27.990Z,-2.10
2022-12-17T06:25:14.046Z,-2.10
2022-12-17T06:27:59.363Z,-2.20
2022-12-17T06:30:45.249Z,-2.20
2022-12-17T06:33:31.301Z,-2.10
2022-12-17T06:36:22.550Z,-2.10
2022-12-17T06:39:10.009Z,-2.20
2022-12-17T06:42:02.052Z,-2.20
2022-12-17T06:44:54.174Z,-2.10
2022-12-17T06:47:40.121Z,-2.10
2022-12-17T06:50:28.637Z,-2.10
2022-12-17T06:53:21.652Z,-2.10
2022-12-17T06:56:14.619Z,-2.10
2022-12-17T06:58:59.994Z,-2.20
2022-12-17T07:01:48.110Z,-2.20
2022-12-17T07:04:34.398Z,-2.20
2022-12-17T07:07:25.126Z,-2.20
2022-12-17T07:10:18.112Z,-2.20
2022-12-17T07:13:08.255Z,-2.10
2022-12-17T07:15:59.197Z,-2.20
2022-12-17T07:18:44.542Z,-2.20
2022-12-17T07:21:35.205Z,-2.30
2022-12-17T07:24:20.565Z,-2.30
2022-12-17T07:27:07.329Z,-2.20
2022-12-17T07:30:01.229Z,-2.20
2022-12-17T07:32:46.816Z,-2.20
2022-12-17T07:35:32.812Z,-2.20
2022-12-17T07:38:19.151Z,-2.10
2022-12-17T07:41:04.790Z,-2.20
2022-12-17T07:43:53.179Z,-2.10
2022-12-17T07:46:40.152Z,-2.10
2022-12-17T07:49:26.351Z,-2.10
2022-12-17T07:52:12.495Z,-2.10
2022-12-17T07:55:17.944Z,-2.00
2022-12-17T07:58:04.202Z,-2.00
2022-12-17T08:00:49.751Z,-2.10
2022-12-17T08:03:36.951Z,-2.10
2022-12-17T08:06:23.349Z,-2.10
2022-12-17T08:09:09.084Z,-2.10
2022-12-17T08:11:54.608Z,-2.10
2022-12-17T08:14:40.432Z,-2.10
2022-12-17T08:17:26.087Z,-2.20
2022-12-17T08:20:12.796Z,-2.20
2022-12-17T08:22:58.227Z,-2.20
2022-12-17T08:25:43.745Z,-2.10
2022-12-17T08:31:34.606Z,-2.20
2022-12-17T08:34:20.205Z,-2.20
2022-12-17T08:37:07.215Z,-2.20
2022-12-17T08:39:52.654Z,-2.10
2022-12-17T08:42:40.313Z,-2.20
2022-12-17T08:45:26.993Z,-2.20
2022-12-17T08:48:12.594Z,-2.20
2022-12-17T08:51:00.850Z,-2.20
2022-12-17T08:53:47.891Z,-2.10
2022-12-17T08:56:33.442Z,-2.20
2022-12-17T08:59:19.089Z,-2.20
2022-12-17T09:02:04.666Z,-2.20
2022-12-17T09:04:52.439Z,-2.10
2022-12-17T09:07:38.085Z,-2.10
2022-12-17T09:10:27.793Z,-2.10
2022-12-17T09:13:13.355Z,-2.10
2022-12-17T09:15:55.398Z,-2.10
2022-12-17T09:18:41.308Z,-2.20
2022-12-17T09:21:27.263Z,-2.20
2022-12-17T09:24:13.029Z,-2.20
2022-12-17T09:27:00.248Z,-2.10
2022-12-17T09:29:45.929Z,-2.10
2022-12-17T09:32:42.830Z,-2.10
2022-12-17T09:35:28.651Z,-2.20
2022-12-17T09:38:15.567Z,-2.20
2022-12-17T09:41:05.816Z,-2.20
2022-12-17T09:44:00.500Z,-2.20
2022-12-17T09:46:54.818Z,-2.20
2022-12-17T09:49:43.249Z,-2.10
2022-12-17T09:52:38.924Z,-2.10
2022-12-17T09:55:34.986Z,-2.10
2022-12-17T09:58:21.691Z,-2.10
2022-12-17T10:01:10.977Z,-2.20
2022-12-17T10:03:57.586Z,-2.20
2022-12-17T10:06:47.061Z,-2.20
2022-12-17T10:09:35.283Z,-2.20
2022-12-17T10:12:31.057Z,-2.20
2022-12-17T10:15:16.692Z,-2.10
2022-12-17T10:18:04.169Z,-2.10
2022-12-17T10:20:54.844Z,-2.20
2022-12-17T10:23:45.200Z,-2.20
2022-12-17T10:26:36.536Z,-2.10
2022-12-17T10:29:24.647Z,-2.10
2022-12-17T10:32:10.218Z,-2.00
2022-12-17T10:35:04.823Z,-2.00
2022-12-17T10:37:53.833Z,-2.00
2022-12-17T10:40:44.382Z,-2.00
2022-12-17T10:43:48.691Z,-2.00
2022-12-17T10:46:43.301Z,-2.00
2022-12-17T10:49:31.614Z,-2.00
2022-12-17T10:52:25.462Z,-2.00
2022-12-17T10:55:17.611Z,-2.00
2022-12-17T10:58:03.920Z,-2.00
2022-12-17T11:00:51.898Z,-2.00
2022-12-17T11:03:57.284Z,-2.00
2022-12-17T11:06:47.118Z,-2.10
2022-12-17T11:09:47.749Z,-2.10
2022-12-17T11:12:35.721Z,-2.20
2022-12-17T11:15:33.709Z,-2.20
2022-12-17T11:18:20.985Z,-2.20
2022-12-17T11:21:12.793Z,-2.10
2022-12-17T11:24:01.379Z,-2.20
2022-12-17T11:26:52.339Z,-2.10
2022-12-17T11:29:38.192Z,-2.10
2022-12-17T11:32:48.553Z,-2.10
2022-12-17T11:35:42.675Z,-2.10
2022-12-17T11:38:39.990Z,-2.10
2022-12-17T11:41:34.713Z,-2.10
2022-12-17T11:44:31.319Z,-2.10
2022-12-17T11:47:27.600Z,-2.00
2022-12-17T11:50:23.480Z,-2.20
2022-12-17T11:53:24.245Z,-2.20
2022-12-17T11:56:21.542Z,-2.10
2022-12-17T11:59:11.604Z,-2.10
2022-12-17T12:02:05.536Z,-2.00
2022-12-17T12:05:07.734Z,-2.00
2022-12-17T12:08:00.829Z,-2.00
2022-12-17T12:11:06.243Z,-2.00
2022-12-17T12:14:01.094Z,-2.00
2022-12-17T12:16:52.087Z,-2.00
2022-12-17T12:19:45.544Z,-2.00
2022-12-17T12:22:36.620Z,-2.10
2022-12-17T12:25:40.865Z,-2.10
2022-12-17T12:28:38.700Z,-2.00
2022-12-17T12:31:34.328Z,-2.00
2022-12-17T12:34:25.062Z,-2.00
2022-12-17T12:37:12.951Z,-1.90
2022-12-17T12:40:03.560Z,-1.90
2022-12-17T12:42:53.908Z,-2.00
2022-12-17T12:45:51.370Z,-2.00
2022-12-17T12:48:49.282Z,-1.90
2022-12-17T12:51:39.320Z,-1.90
2022-12-17T12:57:21.515Z,-1.90
2022-12-17T13:00:11.941Z,-2.00
2022-12-17T13:03:00.745Z,-2.10
2022-12-17T13:05:34.193Z,-2.10
2022-12-17T13:08:22.536Z,-2.10
2022-12-17T13:10:55.022Z,-2.10
2022-12-17T13:13:36.105Z,-2.10
2022-12-17T13:16:25.195Z,-2.10
2022-12-17T13:19:04.342Z,-2.10
2022-12-17T13:21:32.731Z,-2.00
2022-12-17T13:24:11.771Z,-2.00
2022-12-17T13:26:46.849Z,-2.00
2022-12-17T13:29:27.107Z,-2.00
2022-12-17T13:32:10.820Z,-2.00
2022-12-17T13:34:52.806Z,-2.00
2022-12-17T13:37:30.464Z,-2.00
2022-12-17T13:40:08.111Z,-2.10
2022-12-17T13:42:37.514Z,-2.00
2022-12-17T13:45:08.550Z,-2.00
2022-12-17T13:47:38.469Z,-2.00
2022-12-17T13:50:37.169Z,-2.00
2022-12-17T13:53:13.119Z,-2.00
2022-12-17T13:55:41.560Z,-2.00
2022-12-17T13:58:22.541Z,-2.10
2022-12-17T14:00:52.185Z,-2.10
2022-12-17T14:03:42.985Z,-2.00
2022-12-17T14:06:13.113Z,-2.10
2022-12-17T14:08:43.922Z,-2.10
2022-12-17T14:11:30.968Z,-2.20
2022-12-17T14:13:59.603Z,-2.20
2022-12-17T14:16:29.296Z,-2.30
2022-12-17T14:19:00.483Z,-2.30
2022-12-17T14:21:30.650Z,-2.30
2022-12-17T14:23:59.371Z,-2.30
2022-12-17T14:26:27.523Z,-2.30
2022-12-17T14:28:56.304Z,-2.30
2022-12-17T14:31:28.777Z,-2.40
2022-12-17T14:34:08.467Z,-2.40
2022-12-17T14:36:38.352Z,-2.40
2022-12-17T14:39:17.006Z,-2.40
2022-12-17T14:42:02.764Z,-2.40
2022-12-17T14:44:32.478Z,-2.40
2022-12-17T14:47:12.694Z,-2.40
2022-12-17T14:49:57.866Z,-2.50
2022-12-17T14:52:36.618Z,-2.60
2022-12-17T14:55:23.315Z,-2.60
2022-12-17T14:57:51.850Z,-2.60
2022-12-17T15:00:20.285Z,-2.60
2022-12-17T15:02:52.776Z,-2.60
2022-12-17T15:05:22.434Z,-2.60
2022-12-17T15:07:55.340Z,-2.60
2022-12-17T15:10:23.518Z,-2.60
2022-12-17T15:12:53.008Z,-2.60
2022-12-17T15:15:22.062Z,-2.70
2022-12-17T15:17:50.328Z,-2.80
2022-12-17T15:20:20.774Z,-2.80
2022-12-17T15:22:52.619Z,-2.80
2022-12-17T15:25:21.120Z,-2.90
2022-12-17T15:27:49.263Z,-2.90
2022-12-17T15:30:18.835Z,-2.90
2022-12-17T15:32:47.338Z,-2.90
2022-12-17T15:35:15.928Z,-3.00
2022-12-17T15:37:44.360Z,-3.00
2022-12-17T15:40:14.357Z,-3.00
2022-12-17T15:43:05.920Z,-3.10
2022-12-17T15:45:34.736Z,-3.00
2022-12-17T15:48:02.988Z,-3.00
2022-12-17T15:50:31.714Z,-3.10
2022-12-17T15:53:00.025Z,-3.10
2022-12-17T15:55:30.152Z,-3.00
2022-12-17T15:57:58.624Z,-3.00
2022-12-17T16:00:26.782Z,-3.00
2022-12-17T16:02:55.090Z,-3.00
2022-12-17T16:05:23.430Z,-3.00
2022-12-17T16:07:51.922Z,-3.00
2022-12-17T16:10:20.453Z,-3.00
2022-12-17T16:12:49.999Z,-3.10
2022-12-17T16:15:19.222Z,-3.10
2022-12-17T16:17:47.391Z,-3.20
2022-12-17T16:20:15.579Z,-3.20
2022-12-17T16:22:44.381Z,-3.20
2022-12-17T16:25:12.589Z,-3.20
2022-12-17T16:27:40.749Z,-3.20
2022-12-17T16:30:11.457Z,-3.20
2022-12-17T16:32:39.723Z,-3.20
2022-12-17T16:35:08.513Z,-3.20
2022-12-17T16:37:36.977Z,-3.30
2022-12-17T16:40:06.188Z,-3.40
2022-12-17T16:42:34.320Z,-3.40
2022-12-17T16:45:02.461Z,-3.30
2022-12-17T16:47:32.061Z,-3.40
2022-12-17T16:50:02.801Z,-3.40
2022-12-17T16:52:30.911Z,-3.40
2022-12-17T16:54:59.695Z,-3.30
2022-12-17T16:57:27.779Z,-3.30
2022-12-17T16:59:56.034Z,-3.20
2022-12-17T17:02:24.420Z,-3.20
2022-12-17T17:04:53.994Z,-3.20
2022-12-17T17:07:22.097Z,-3.20
2022-12-17T17:09:50.295Z,-3.30
2022-12-17T17:12:18.453Z,-3.30
2022-12-17T17:14:46.534Z,-3.40
2022-12-17T17:17:14.946Z,-3.30
2022-12-17T17:19:43.125Z,-3.20
2022-12-17T17:22:12.621Z,-3.20
2022-12-17T17:24:40.931Z,-3.20
2022-12-17T17:27:09.076Z,-3.30
2022-12-17T17:29:37.191Z,-3.40
2022-12-17T17:32:13.144Z,-3.40
2022-12-17T17:34:41.899Z,-3.40
2022-12-17T17:37:16.940Z,-3.30
2022-12-17T17:39:45.545Z,-3.30
2022-12-17T17:42:14.778Z,-3.40
2022-12-17T17:44:42.907Z,-3.40
2022-12-17T17:47:11.117Z,-3.40
2022-12-17T17:49:39.331Z,-3.40
2022-12-17T17:52:10.354Z,-3.40
2022-12-17T17:54:41.013Z,-3.40
2022-12-17T17:57:09.642Z,-3.40
2022-12-17T17:59:39.417Z,-3.40
2022-12-17T18:02:08.921Z,-3.50
2022-12-17T18:04:37.544Z,-3.50
2022-12-17T18:09:55.253Z,-3.50
2022-12-17T18:12:40.645Z,-3.50
2022-12-17T18:15:18.132Z,-3.60
2022-12-17T18:17:50.447Z,-3.60
2022-12-17T18:20:20.715Z,-3.60
2022-12-17T18:22:52.574Z,-3.60
2022-12-17T18:25:22.821Z,-3.60
2022-12-17T18:28:00.967Z,-3.60
2022-12-17T18:30:31.898Z,-3.60
2022-12-17T18:33:02.822Z,-3.50
2022-12-17T18:35:30.950Z,-3.50
2022-12-17T18:38:01.189Z,-3.40
2022-12-17T18:40:33.741Z,-3.50
2022-12-17T18:43:19.856Z,-3.50
2022-12-17T18:45:48.008Z,-3.50
2022-12-17T18:48:16.239Z,-3.60
2022-12-17T18:50:44.579Z,-3.60
2022-12-17T18:53:16.863Z,-3.40
2022-12-17T18:55:46.369Z,-3.50
2022-12-17T18:58:17.648Z,-3.50
2022-12-17T19:00:47.739Z,-3.50
2022-12-17T19:03:18.946Z,-3.50
2022-12-17T19:05:51.314Z,-3.40
2022-12-17T19:08:27.666Z,-3.40
2022-12-17T19:11:04.380Z,-3.40
2022-12-17T19:13:33.313Z,-3.30
2022-12-17T19:16:10.575Z,-3.30
2022-12-17T19:18:42.773Z,-3.20
2022-12-17T19:21:17.575Z,-3.20
2022-12-17T19:23:49.496Z,-3.20
2022-12-17T19:26:22.545Z,-3.20
2022-12-17T19:28:55.420Z,-3.10
2022-12-17T19:31:25.984Z,-3.10
2022-12-17T19:33:57.663Z,-3.20
2022-12-17T19:36:32.710Z,-3.30
2022-12-17T19:39:02.917Z,-3.20
2022-12-17T19:41:35.168Z,-3.10
2022-12-17T19:44:07.678Z,-3.10
2022-12-17T19:46:38.283Z,-3.10
2022-12-17T19:49:07.691Z,-3.10
2022-12-17T19:51:35.828Z,-3.10
2022-12-17T19:54:08.922Z,-3.00
2022-12-17T19:56:39.305Z,-3.00
2022-12-17T19:59:09.366Z,-3.10
2022-12-17T20:01:40.456Z,-3.10
2022-12-17T20:04:15.014Z,-3.10
2022-12-17T20:06:43.966Z,-3.10
2022-12-17T20:09:17.487Z,-3.10
2022-12-17T20:11:47.260Z,-3.00
2022-12-17T20:14:17.613Z,-3.00
2022-12-17T20:16:49.554Z,-3.00
2022-12-17T20:19:21.854Z,-3.00
2022-12-17T20:21:54.876Z,-3.00
2022-12-17T20:24:30.474Z,-3.00
2022-12-17T20:27:01.260Z,-2.90
2022-12-17T20:29:30.176Z,-2.90
2022-12-17T20:32:06.145Z,-2.80
2022-12-17T20:34:34.390Z,-2.80
2022-12-17T20:37:05.716Z,-2.80
2022-12-17T20:39:35.443Z,-2.90
2022-12-17T20:42:09.252Z,-2.80
2022-12-17T20:44:37.379Z,-2.80
2022-12-17T20:47:05.557Z,-2.80
2022-12-17T20:49:33.846Z,-2.70
2022-12-17T20:52:01.955Z,-2.70
2022-12-17T20:54:30.153Z,-2.70
2022-12-17T20:56:58.339Z,-2.70
2022-12-17T20:59:27.882Z,-2.70
2022-12-17T21:01:56.609Z,-2.70
2022-12-17T21:04:25.413Z,-2.70
2022-12-17T21:06:53.879Z,-2.70
2022-12-17T21:09:22.810Z,-2.60
2022-12-17T21:11:51.067Z,-2.70
2022-12-17T21:14:20.480Z,-2.70
2022-12-17T21:16:50.155Z,-2.70
2022-12-17T21:19:21.024Z,-2.80
2022-12-17T21:21:49.651Z,-2.80
2022-12-17T21:24:17.818Z,-2.80
2022-12-17T21:26:47.143Z,-2.80
2022-12-17T21:29:15.765Z,-2.90
2022-12-17T21:31:45.818Z,-2.90
2022-12-17T21:34:17.422Z,-3.00
2022-12-17T21:36:46.883Z,-2.90
2022-12-17T21:39:16.238Z,-2.90
2022-12-17T21:42:08.110Z,-2.90
2022-12-17T21:44:36.855Z,-2.90
2022-12-17T21:47:05.268Z,-2.90
2022-12-17T21:49:34.990Z,-2.90
2022-12-17T21:52:03.402Z,-2.90
2022-12-17T21:54:31.627Z,-2.90
2022-12-17T21:56:59.736Z,-3.00
2022-12-17T21:59:28.011Z,-3.10
2022-12-17T22:01:57.511Z,-3.10
2022-12-17T22:04:26.555Z,-3.10
2022-12-17T22:06:56.260Z,-3.20
2022-12-17T22:09:31.553Z,-3.10
2022-12-17T22:12:32.723Z,-3.10
2022-12-17T22:15:00.847Z,-3.10
2022-12-17T22:17:29.833Z,-3.10
2022-12-17T22:20:08.118Z,-3.10
2022-12-17T22:22:39.622Z,-3.10
2022-12-17T22:25:11.403Z,-3.10
2022-12-17T22:27:41.061Z,-3.10
2022-12-17T22:30:31.892Z,-3.10
2022-12-17T22:33:06.593Z,-3.00
2022-12-17T22:37:31.057Z,-3.00
2022-12-17T22:42:06.707Z,-2.90
2022-12-17T22:44:30.557Z,-2.90
2022-12-17T22:44:51.863Z,-2.90
2022-12-17T22:47:21.074Z,-2.90
2022-12-17T22:49:49.177Z,-2.90
2022-12-17T22:52:17.990Z,-2.80
2022-12-17T22:54:48.826Z,-2.90
2022-12-17T22:57:37.005Z,-2.90
2022-12-17T23:00:10.772Z,-2.90
2022-12-17T23:02:38.933Z,-2.90
2022-12-17T23:05:07.696Z,-2.90
2022-12-17T23:07:35.990Z,-2.90
2022-12-17T23:10:06.287Z,-2.80
2022-12-17T23:12:52.441Z,-2.90
2022-12-17T23:15:23.498Z,-2.90
2022-12-17T23:17:53.467Z,-2.80
2022-12-17T23:20:21.779Z,-2.80
2022-12-17T23:22:49.951Z,-2.80
2022-12-17T23:25:20.138Z,-2.80
2022-12-17T23:27:48.465Z,-2.80
2022-12-17T23:30:18.108Z,-2.70
2022-12-17T23:32:46.300Z,-2.70
2022-12-17T23:35:15.013Z,-2.70
2022-12-17T23:37:43.333Z,-2.70
2022-12-17T23:40:13.003Z,-2.70
2022-12-17T23:42:42.391Z,-2.70
2022-12-17T23:45:12.040Z,-2.70
2022-12-17T23:47:41.900Z,-2.80
2022-12-17T23:50:13.301Z,-2.80
2022-12-17T23:52:41.506Z,-2.70
2022-12-17T23:55:11.662Z,-2.70
2022-12-17T23:57:41.940Z,-2.70
